createdAt,value
2022-09-28T00:00:41.989Z,8.74
2022-09-28T00:03:09.530Z,8.87
2022-09-28T00:05:36.028Z,8.89
2022-09-28T00:08:02.650Z,8.95
2022-09-28T00:10:29.138Z,8.89
2022-09-28T00:12:55.726Z,8.88
2022-09-28T00:15:24.357Z,8.85
2022-09-28T00:17:50.765Z,8.71
2022-09-28T00:20:19.099Z,8.74
2022-09-28T00:22:45.683Z,8.71
2022-09-28T00:25:12.338Z,8.71
2022-09-28T00:27:38.759Z,8.73
2022-09-28T00:30:06.115Z,8.67
2022-09-28T00:32:33.246Z,8.64
2022-09-28T00:34:59.736Z,8.67
2022-09-28T00:37:26.480Z,8.60
2022-09-28T00:39:52.999Z,8.64
2022-09-28T00:42:22.980Z,8.64
2022-09-28T00:44:56.222Z,8.63
2022-09-28T00:47:51.979Z,8.59
2022-09-28T00:50:26.338Z,8.63
2022-09-28T00:53:01.085Z,8.61
2022-09-28T00:55:54.735Z,8.63
2022-09-28T00:58:27.577Z,8.64
2022-09-28T01:00:59.146Z,8.64
2022-09-28T01:03:27.600Z,8.68
2022-09-28T01:05:57.769Z,8.65
2022-09-28T01:08:27.474Z,8.64
2022-09-28T01:10:54.806Z,8.67
2022-09-28T01:13:23.421Z,8.61
2022-09-28T01:15:57.875Z,8.61
2022-09-28T01:18:42.503Z,8.65
2022-09-28T01:21:18.086Z,8.59
2022-09-28T01:23:44.402Z,8.53
2022-09-28T01:26:40.035Z,8.56
2022-09-28T01:29:17.738Z,8.53
2022-09-28T01:31:50.987Z,8.56
2022-09-28T01:34:39.341Z,8.61
2022-09-28T01:37:12.198Z,8.60
2022-09-28T01:39:43.372Z,8.64
2022-09-28T01:42:17.171Z,8.64
2022-09-28T01:44:47.907Z,8.63
2022-09-28T01:47:20.300Z,8.65
2022-09-28T01:49:52.986Z,8.61
2022-09-28T01:52:33.862Z,8.56
2022-09-28T01:55:06.667Z,8.59
2022-09-28T01:57:58.404Z,8.64
2022-09-28T02:00:26.246Z,8.61
2022-09-28T02:03:02.173Z,8.73
2022-09-28T02:05:39.013Z,8.64
2022-09-28T02:08:28.422Z,8.68
2022-09-28T02:11:08.346Z,8.68
2022-09-28T02:13:39.279Z,8.73
2022-09-28T02:16:15.113Z,8.70
2022-09-28T02:18:42.131Z,8.71
2022-09-28T02:21:22.348Z,8.74
2022-09-28T02:23:56.879Z,8.74
2022-09-28T02:26:29.741Z,8.77
2022-09-28T02:28:56.197Z,8.84
2022-09-28T02:31:22.689Z,8.77
2022-09-28T02:33:51.824Z,8.88
2022-09-28T02:36:18.446Z,8.88
2022-09-28T02:38:45.065Z,8.84
2022-09-28T02:41:20.277Z,8.85
2022-09-28T02:43:52.899Z,8.89
2022-09-28T02:46:35.319Z,8.87
2022-09-28T02:49:31.120Z,8.92
2022-09-28T02:52:19.413Z,8.88
2022-09-28T02:55:09.792Z,8.89
2022-09-28T02:57:59.378Z,8.97
2022-09-28T03:00:25.965Z,8.95
2022-09-28T03:03:12.623Z,8.94
2022-09-28T03:05:39.185Z,8.91
2022-09-28T03:08:16.861Z,8.94
2022-09-28T03:10:58.876Z,8.95
2022-09-28T03:13:27.101Z,8.95
2022-09-28T03:16:09.148Z,8.95
2022-09-28T03:18:35.639Z,8.95
2022-09-28T03:21:04.211Z,8.92
2022-09-28T03:23:31.053Z,8.95
2022-09-28T03:25:58.112Z,8.94
2022-09-28T03:28:24.555Z,8.94
2022-09-28T03:30:51.068Z,8.88
2022-09-28T03:33:17.665Z,8.91
2022-09-28T03:35:47.660Z,8.89
2022-09-28T03:38:14.533Z,9.05
2022-09-28T03:40:41.069Z,9.05
2022-09-28T03:43:07.535Z,9.02
2022-09-28T03:45:34.180Z,8.94
2022-09-28T03:48:00.746Z,8.88
2022-09-28T03:50:27.453Z,8.91
2022-09-28T03:52:54.289Z,8.98
2022-09-28T03:55:20.765Z,8.98
2022-09-28T03:57:53.930Z,8.88
2022-09-28T04:00:20.428Z,8.81
2022-09-28T04:02:46.813Z,8.81
2022-09-28T04:05:13.321Z,8.84
2022-09-28T04:07:39.838Z,8.75
2022-09-28T04:10:06.796Z,8.81
2022-09-28T04:12:33.213Z,8.87
2022-09-28T04:14:59.630Z,8.87
2022-09-28T04:17:25.986Z,8.81
2022-09-28T04:19:52.392Z,8.82
2022-09-28T04:22:19.033Z,8.81
2022-09-28T04:24:46.435Z,8.84
2022-09-28T04:27:31.322Z,8.84
2022-09-28T04:29:58.890Z,8.84
2022-09-28T04:32:25.319Z,8.82
2022-09-28T04:34:51.844Z,8.78
2022-09-28T04:37:18.545Z,8.78
2022-09-28T04:39:48.241Z,8.84
2022-09-28T04:42:15.078Z,8.85
2022-09-28T04:44:41.493Z,8.84
2022-09-28T04:47:07.982Z,8.84
2022-09-28T04:49:36.974Z,8.87
2022-09-28T04:52:04.757Z,8.87
2022-09-28T04:54:34.188Z,8.89
2022-09-28T04:57:01.007Z,8.89
2022-09-28T04:59:27.550Z,8.88
2022-09-28T05:01:54.097Z,8.95
2022-09-28T05:04:25.596Z,8.98
2022-09-28T05:06:52.410Z,9.00
2022-09-28T05:11:45.830Z,9.01
2022-09-28T05:14:12.570Z,9.01
2022-09-28T05:16:38.990Z,9.04
2022-09-28T05:19:06.404Z,9.02
2022-09-28T05:21:33.003Z,8.98
2022-09-28T05:23:59.544Z,8.98
2022-09-28T05:26:25.956Z,8.98
2022-09-28T05:40:03.886Z,8.97
2022-09-28T05:42:31.200Z,9.01
2022-09-28T05:45:00.211Z,8.98
2022-09-28T05:47:27.325Z,9.00
2022-09-28T05:49:54.033Z,9.07
2022-09-28T05:52:20.611Z,8.98
2022-09-28T05:54:47.228Z,9.04
2022-09-28T05:57:14.500Z,9.04
2022-09-28T05:59:41.286Z,9.04
2022-09-28T06:02:07.822Z,9.10
2022-09-28T06:04:34.258Z,9.11
2022-09-28T06:07:00.611Z,9.15
2022-09-28T06:09:26.978Z,9.07
2022-09-28T06:11:53.400Z,9.08
2022-09-28T06:14:19.811Z,9.10
2022-09-28T06:16:47.304Z,9.04
2022-09-28T06:19:13.690Z,8.94
2022-09-28T06:21:40.025Z,8.97
2022-09-28T06:24:06.464Z,8.95
2022-09-28T06:26:33.156Z,8.84
2022-09-28T06:29:00.462Z,8.84
2022-09-28T06:31:28.838Z,8.75
2022-09-28T06:33:55.271Z,8.70
2022-09-28T06:36:22.132Z,8.73
2022-09-28T06:38:48.485Z,8.78
2022-09-28T06:41:14.953Z,8.73
2022-09-28T06:43:41.577Z,8.75
2022-09-28T06:46:10.043Z,8.75
2022-09-28T06:48:37.609Z,8.74
2022-09-28T06:51:04.553Z,8.80
2022-09-28T06:53:31.333Z,8.68
2022-09-28T06:55:58.043Z,8.82
2022-09-28T06:58:25.843Z,8.89
2022-09-28T07:00:52.499Z,8.97
2022-09-28T07:03:21.583Z,8.89
2022-09-28T07:05:53.845Z,8.88
2022-09-28T07:08:24.189Z,8.87
2022-09-28T07:10:56.051Z,8.97
2022-09-28T07:13:50.915Z,9.05
2022-09-28T07:16:19.775Z,9.07
2022-09-28T07:18:49.113Z,9.05
2022-09-28T07:21:25.205Z,9.23
2022-09-28T07:23:54.486Z,9.32
2022-09-28T07:26:23.964Z,9.23
2022-09-28T07:28:51.230Z,9.18
2022-09-28T07:31:17.682Z,9.26
2022-09-28T07:33:44.190Z,9.33
2022-09-28T07:36:10.706Z,9.44
2022-09-28T07:38:38.178Z,9.57
2022-09-28T07:41:14.756Z,9.53
2022-09-28T07:43:41.607Z,9.57
2022-09-28T07:46:12.056Z,9.64
2022-09-28T07:48:42.980Z,9.69
2022-09-28T07:51:10.121Z,9.64
2022-09-28T07:53:38.321Z,9.84
2022-09-28T07:56:09.885Z,9.94
2022-09-28T07:58:37.823Z,10.00
2022-09-28T08:01:06.929Z,9.89
2022-09-28T08:03:34.788Z,9.87
2022-09-28T08:06:04.174Z,9.97
2022-09-28T08:08:31.084Z,9.89
2022-09-28T08:10:58.030Z,9.95
2022-09-28T08:13:27.115Z,9.98
2022-09-28T08:15:54.693Z,9.97
2022-09-28T08:18:21.609Z,9.93
2022-09-28T08:21:06.418Z,10.18
2022-09-28T08:23:32.823Z,10.42
2022-09-28T08:25:59.220Z,10.32
2022-09-28T08:28:26.179Z,10.21
2022-09-28T08:30:52.903Z,10.17
2022-09-28T08:33:23.718Z,10.29
2022-09-28T08:36:00.879Z,10.53
2022-09-28T08:38:29.411Z,10.28
2022-09-28T08:41:05.522Z,10.05
2022-09-28T08:43:59.920Z,10.20
2022-09-28T08:46:33.462Z,10.24
2022-09-28T08:49:32.570Z,10.25
2022-09-28T08:52:11.228Z,10.26
2022-09-28T08:54:45.992Z,10.29
2022-09-28T08:57:17.612Z,10.35
2022-09-28T08:59:51.282Z,10.35
2022-09-28T09:02:29.035Z,10.48
2022-09-28T09:04:57.069Z,10.52
2022-09-28T09:07:43.893Z,10.49
2022-09-28T09:10:38.495Z,10.42
2022-09-28T09:13:25.931Z,10.77
2022-09-28T09:15:59.653Z,11.07
2022-09-28T09:18:48.292Z,11.10
2022-09-28T09:21:21.783Z,10.96
2022-09-28T09:23:56.934Z,10.83
2022-09-28T09:26:39.159Z,10.55
2022-09-28T09:29:29.113Z,10.26
2022-09-28T09:32:04.390Z,10.37
2022-09-28T09:35:08.656Z,10.38
2022-09-28T09:38:02.189Z,10.46
2022-09-28T09:40:48.233Z,10.59
2022-09-28T09:43:29.447Z,10.69
2022-09-28T09:46:04.144Z,10.62
2022-09-28T09:49:00.662Z,10.56
2022-09-28T09:51:54.038Z,10.66
2022-09-28T09:54:38.564Z,10.76
2022-09-28T09:57:19.502Z,10.90
2022-09-28T09:59:48.065Z,10.96
2022-09-28T10:02:32.420Z,10.94
2022-09-28T10:05:30.658Z,10.94
2022-09-28T10:08:08.866Z,11.04
2022-09-28T10:10:50.223Z,11.07
2022-09-28T10:13:16.678Z,11.32
2022-09-28T10:15:43.372Z,11.58
2022-09-28T10:18:14.044Z,11.69
2022-09-28T10:20:43.790Z,11.65
2022-09-28T10:23:23.830Z,11.88
2022-09-28T10:25:54.764Z,11.88
2022-09-28T10:28:35.514Z,11.81
2022-09-28T10:31:35.488Z,11.96
2022-09-28T10:34:03.017Z,11.90
2022-09-28T10:36:32.726Z,11.92
2022-09-28T10:38:59.166Z,11.90
2022-09-28T10:41:25.927Z,11.85
2022-09-28T10:44:06.670Z,11.93
2022-09-28T10:46:35.216Z,12.03
2022-09-28T10:49:06.667Z,12.14
2022-09-28T10:51:59.586Z,12.34
2022-09-28T10:54:30.765Z,12.12
2022-09-28T10:56:58.598Z,12.06
2022-09-28T10:59:38.393Z,12.03
2022-09-28T11:02:24.191Z,11.99
2022-09-28T11:04:57.398Z,12.06
2022-09-28T11:07:27.482Z,12.30
2022-09-28T11:09:55.279Z,12.54
2022-09-28T11:12:24.433Z,12.74
2022-09-28T11:14:58.843Z,12.72
2022-09-28T11:17:27.214Z,12.36
2022-09-28T11:19:55.258Z,12.41
2022-09-28T11:22:23.318Z,12.48
2022-09-28T11:24:50.298Z,12.63
2022-09-28T11:27:27.523Z,12.60
2022-09-28T11:29:58.954Z,12.51
2022-09-28T11:32:29.829Z,12.53
2022-09-28T11:35:00.477Z,12.50
2022-09-28T11:37:42.908Z,12.47
2022-09-28T11:40:31.355Z,12.44
2022-09-28T11:43:12.284Z,12.41
2022-09-28T11:45:51.238Z,12.28
2022-09-28T11:48:25.534Z,12.43
2022-09-28T11:51:02.155Z,12.36
2022-09-28T11:53:36.790Z,12.61
2022-09-28T11:56:27.728Z,12.71
2022-09-28T11:59:00.255Z,12.79
2022-09-28T12:01:35.565Z,12.95
2022-09-28T12:04:21.596Z,12.76
2022-09-28T12:07:00.095Z,12.78
2022-09-28T12:09:44.102Z,12.85
2022-09-28T12:12:25.562Z,12.89
2022-09-28T12:14:59.788Z,12.95
2022-09-28T12:17:42.992Z,13.22
2022-09-28T12:20:33.861Z,13.25
2022-09-28T12:23:18.952Z,13.05
2022-09-28T12:25:55.305Z,12.98
2022-09-28T12:28:30.468Z,12.86
2022-09-28T12:31:05.177Z,12.86
2022-09-28T12:33:32.390Z,13.18
2022-09-28T12:36:28.360Z,13.34
2022-09-28T12:39:35.824Z,13.64
2022-09-28T12:42:12.195Z,13.54
2022-09-28T12:44:59.573Z,13.47
2022-09-28T12:47:44.811Z,13.47
2022-09-28T12:50:39.580Z,13.48
2022-09-28T12:53:31.060Z,13.57
2022-09-28T12:56:11.558Z,13.47
2022-09-28T12:58:52.122Z,13.74
2022-09-28T13:01:35.783Z,13.54
2022-09-28T13:04:27.243Z,13.44
2022-09-28T13:07:07.617Z,13.40
2022-09-28T13:10:01.227Z,13.53
2022-09-28T13:12:48.197Z,13.44
2022-09-28T13:15:27.345Z,13.91
2022-09-28T13:18:10.869Z,13.75
2022-09-28T13:21:03.675Z,13.78
2022-09-28T13:23:37.445Z,13.46
2022-09-28T13:26:17.498Z,13.50
2022-09-28T13:28:47.023Z,13.47
2022-09-28T13:31:20.264Z,13.43
2022-09-28T13:33:48.116Z,13.64
2022-09-28T13:36:30.324Z,13.51
2022-09-28T13:38:59.391Z,13.34
2022-09-28T13:41:30.766Z,13.34
2022-09-28T13:44:08.727Z,13.22
2022-09-28T13:46:58.382Z,13.11
2022-09-28T13:49:29.161Z,13.33
2022-09-28T13:52:05.068Z,13.75
2022-09-28T13:54:41.663Z,14.53
2022-09-28T13:57:31.217Z,15.11
2022-09-28T14:00:17.555Z,15.31
2022-09-28T14:03:20.015Z,14.42
2022-09-28T14:06:05.060Z,14.29
2022-09-28T14:08:57.877Z,14.52
2022-09-28T14:11:27.089Z,15.61
2022-09-28T14:14:08.689Z,15.87
2022-09-28T14:16:36.902Z,15.85
2022-09-28T14:19:07.090Z,16.04
2022-09-28T14:21:45.517Z,16.10
2022-09-28T14:24:43.845Z,16.85
2022-09-28T14:27:41.689Z,16.24
2022-09-28T14:30:08.381Z,15.52
2022-09-28T14:32:36.975Z,15.04
2022-09-28T14:35:07.048Z,14.51
2022-09-28T14:38:00.395Z,14.14
2022-09-28T14:40:54.945Z,13.94
2022-09-28T14:43:29.129Z,13.98
2022-09-28T14:46:10.778Z,13.81
2022-09-28T14:48:50.965Z,13.83
2022-09-28T14:51:26.315Z,13.94
2022-09-28T14:54:13.461Z,13.90
2022-09-28T14:56:41.818Z,13.67
2022-09-28T14:59:17.191Z,13.54
2022-09-28T15:02:19.147Z,13.57
2022-09-28T15:05:02.707Z,13.50
2022-09-28T15:07:43.437Z,13.29
2022-09-28T15:10:31.296Z,13.19
2022-09-28T15:13:01.361Z,13.26
2022-09-28T15:15:35.230Z,13.22
2022-09-28T15:18:33.571Z,12.91
2022-09-28T15:21:00.409Z,12.86
2022-09-28T15:23:34.456Z,12.75
2022-09-28T15:26:01.477Z,13.11
2022-09-28T15:28:28.471Z,13.88
2022-09-28T15:33:49.609Z,13.64
2022-09-28T15:36:28.407Z,14.36
2022-09-28T15:39:02.856Z,14.52
2022-09-28T15:41:29.597Z,14.06
2022-09-28T15:44:18.997Z,13.73
2022-09-28T15:46:56.211Z,13.74
2022-09-28T15:49:38.787Z,13.46
2022-09-28T15:52:05.809Z,13.19
2022-09-28T15:54:42.663Z,13.06
2022-09-28T15:57:30.240Z,13.02
2022-09-28T15:59:56.932Z,12.85
2022-09-28T16:02:24.080Z,12.93
2022-09-28T16:05:00.890Z,12.91
2022-09-28T16:07:38.509Z,12.92
2022-09-28T16:10:14.050Z,12.96
2022-09-28T16:12:42.156Z,12.98
2022-09-28T16:15:27.161Z,12.95
2022-09-28T16:17:56.974Z,12.93
2022-09-28T16:20:32.333Z,12.84
2022-09-28T16:23:05.943Z,12.79
2022-09-28T16:25:37.001Z,12.47
2022-09-28T16:28:05.251Z,11.81
2022-09-28T16:30:33.770Z,11.27
2022-09-28T16:33:27.216Z,10.96
2022-09-28T16:35:55.992Z,10.87
2022-09-28T16:38:22.458Z,10.93
2022-09-28T16:40:52.242Z,10.76
2022-09-28T16:43:26.731Z,10.79
2022-09-28T16:45:56.548Z,10.94
2022-09-28T16:48:27.187Z,10.93
2022-09-28T16:50:53.708Z,10.86
2022-09-28T16:53:38.963Z,10.81
2022-09-28T16:56:06.553Z,10.86
2022-09-28T16:58:33.886Z,10.72
2022-09-28T17:01:01.262Z,10.68
2022-09-28T17:03:28.476Z,10.56
2022-09-28T17:05:56.247Z,10.52
2022-09-28T17:08:24.397Z,10.50
2022-09-28T17:11:13.103Z,10.50
2022-09-28T17:13:39.460Z,10.52
2022-09-28T17:16:11.568Z,10.68
2022-09-28T17:18:39.833Z,10.73
2022-09-28T17:21:12.019Z,10.56
2022-09-28T17:23:38.910Z,10.45
2022-09-28T17:26:06.019Z,10.38
2022-09-28T17:28:35.724Z,10.26
2022-09-28T17:31:03.821Z,10.31
2022-09-28T17:33:30.378Z,10.35
2022-09-28T17:36:00.638Z,10.21
2022-09-28T17:38:27.726Z,10.07
2022-09-28T17:40:54.252Z,9.98
2022-09-28T17:43:23.886Z,9.84
2022-09-28T17:45:50.709Z,9.87
2022-09-28T17:48:24.146Z,9.86
2022-09-28T17:50:51.149Z,9.80
2022-09-28T17:53:17.811Z,9.81
2022-09-28T17:55:44.257Z,9.77
2022-09-28T17:58:19.465Z,9.77
2022-09-28T18:00:47.501Z,9.73
2022-09-28T18:03:19.913Z,9.59
2022-09-28T18:05:49.667Z,9.56
2022-09-28T18:08:20.180Z,9.56
2022-09-28T18:10:47.228Z,9.57
2022-09-28T18:13:14.594Z,9.46
2022-09-28T18:15:41.778Z,9.57
2022-09-28T18:18:09.796Z,9.46
2022-09-28T18:20:36.772Z,9.38
2022-09-28T18:23:03.411Z,9.32
2022-09-28T18:25:29.972Z,9.39
2022-09-28T18:27:57.474Z,9.38
2022-09-28T18:30:24.611Z,9.31
2022-09-28T18:32:51.364Z,9.31
2022-09-28T18:35:22.815Z,9.23
2022-09-28T18:37:49.901Z,9.31
2022-09-28T18:40:16.719Z,9.31
2022-09-28T18:42:43.128Z,9.28
2022-09-28T18:45:11.234Z,9.12
2022-09-28T18:47:39.194Z,9.15
2022-09-28T18:50:06.303Z,9.16
2022-09-28T18:52:36.342Z,9.31
2022-09-28T18:55:03.268Z,9.23
2022-09-28T18:57:33.166Z,9.21
2022-09-28T19:00:00.642Z,9.08
2022-09-28T19:02:27.304Z,8.97
2022-09-28T19:04:53.770Z,8.91
2022-09-28T19:07:21.145Z,8.87
2022-09-28T19:09:47.828Z,8.84
2022-09-28T19:12:14.520Z,8.95
2022-09-28T19:14:42.842Z,8.98
2022-09-28T19:17:10.268Z,9.01
2022-09-28T19:19:36.950Z,9.04
2022-09-28T19:22:03.899Z,9.26
2022-09-28T19:24:32.086Z,9.18
2022-09-28T19:26:59.659Z,9.28
2022-09-28T19:29:26.558Z,9.33
2022-09-28T19:31:53.358Z,9.28
2022-09-28T19:34:24.319Z,9.11
2022-09-28T19:36:50.791Z,9.12
2022-09-28T19:39:20.081Z,9.11
2022-09-28T19:41:54.228Z,9.28
2022-09-28T19:44:27.153Z,9.08
2022-09-28T19:47:06.507Z,9.22
2022-09-28T19:49:37.848Z,9.15
2022-09-28T19:52:13.360Z,9.19
2022-09-28T19:54:56.437Z,9.00
2022-09-28T19:57:26.059Z,8.98
2022-09-28T19:59:54.970Z,9.00
2022-09-28T20:02:23.369Z,9.08
2022-09-28T20:04:49.969Z,9.02
2022-09-28T20:07:16.633Z,8.94
2022-09-28T20:09:43.401Z,8.95
2022-09-28T20:12:09.873Z,8.95
2022-09-28T20:14:38.301Z,8.91
2022-09-28T20:17:06.846Z,8.89
2022-09-28T20:19:33.547Z,8.91
2022-09-28T20:22:03.233Z,9.00
2022-09-28T20:24:31.103Z,9.12
2022-09-28T20:26:58.073Z,9.00
2022-09-28T20:29:24.834Z,9.02
2022-09-28T20:31:51.878Z,9.11
2022-09-28T20:34:19.639Z,9.00
2022-09-28T20:36:47.267Z,8.91
2022-09-28T20:39:13.943Z,9.01
2022-09-28T20:41:41.052Z,8.98
2022-09-28T20:44:07.739Z,8.89
2022-09-28T20:46:37.982Z,9.01
2022-09-28T20:49:05.479Z,9.01
2022-09-28T20:51:35.381Z,8.89
2022-09-28T20:54:02.014Z,8.85
2022-09-28T20:56:37.583Z,8.85
2022-09-28T20:59:09.308Z,8.81
2022-09-28T21:01:36.595Z,8.94
2022-09-28T21:04:05.647Z,8.84
2022-09-28T21:06:40.956Z,8.95
2022-09-28T21:09:09.411Z,8.82
2022-09-28T21:11:39.780Z,8.82
2022-09-28T21:14:08.587Z,8.88
2022-09-28T21:18:30.827Z,9.07
2022-09-28T21:20:57.267Z,8.80
2022-09-28T21:23:25.009Z,8.82
2022-09-28T21:26:04.501Z,8.80
2022-09-28T21:28:31.215Z,8.75
2022-09-28T21:30:58.286Z,8.80
2022-09-28T21:33:24.772Z,8.77
2022-09-28T21:35:51.189Z,8.80
2022-09-28T21:38:17.804Z,8.81
2022-09-28T21:40:44.240Z,8.88
2022-09-28T21:43:10.924Z,8.84
2022-09-28T21:45:41.956Z,8.82
2022-09-28T21:48:08.445Z,8.94
2022-09-28T21:50:34.850Z,9.00
2022-09-28T21:53:02.101Z,9.02
2022-09-28T21:55:28.596Z,9.12
2022-09-28T21:57:55.365Z,9.11
2022-09-28T22:00:24.519Z,9.22
2022-09-28T22:02:51.272Z,9.21
2022-09-28T22:05:19.079Z,9.15
2022-09-28T22:07:45.603Z,9.21
2022-09-28T22:10:13.743Z,9.18
2022-09-28T22:12:40.933Z,9.16
2022-09-28T22:15:07.837Z,9.26
2022-09-28T22:17:34.247Z,9.22
2022-09-28T22:20:01.419Z,9.19
2022-09-28T22:22:29.274Z,9.33
2022-09-28T22:24:56.138Z,9.19
2022-09-28T22:27:22.726Z,9.21
2022-09-28T22:29:50.963Z,9.10
2022-09-28T22:32:18.911Z,9.07
2022-09-28T22:34:45.285Z,8.95
2022-09-28T22:37:13.386Z,9.02
2022-09-28T22:39:41.275Z,9.08
2022-09-28T22:42:08.817Z,9.14
2022-09-28T22:44:35.836Z,9.26
2022-09-28T22:47:03.543Z,9.22
2022-09-28T22:49:30.083Z,9.32
2022-09-28T22:51:56.727Z,9.15
2022-09-28T22:54:23.499Z,9.16
2022-09-28T22:56:49.897Z,9.22
2022-09-28T22:59:16.417Z,9.16
2022-09-28T23:01:43.114Z,9.11
2022-09-28T23:04:09.622Z,9.16
2022-09-28T23:06:36.136Z,9.22
2022-09-28T23:09:03.067Z,9.25
2022-09-28T23:11:29.628Z,9.18
2022-09-28T23:13:57.724Z,9.33
2022-09-28T23:16:26.437Z,9.28
2022-09-28T23:18:55.006Z,9.28
2022-09-28T23:21:24.408Z,9.26
2022-09-28T23:23:57.898Z,9.31
2022-09-28T23:26:27.374Z,9.25
2022-09-28T23:28:54.192Z,9.19
2022-09-28T23:31:25.896Z,9.16
2022-09-28T23:33:56.380Z,9.18
2022-09-28T23:36:23.574Z,9.12
2022-09-28T23:38:50.330Z,9.10
2022-09-28T23:41:17.382Z,9.05
2022-09-28T23:43:43.758Z,9.05
2022-09-28T23:46:10.216Z,9.02
2022-09-28T23:48:36.617Z,9.01
2022-09-28T23:51:03.444Z,9.05
2022-09-28T23:53:30.136Z,9.08
2022-09-28T23:55:56.809Z,8.92
